createdAt,value
2022-11-14T00:02:44.778Z,56.55
2022-11-14T00:05:31.456Z,81.93
2022-11-14T00:08:21.638Z,77.22
2022-11-14T00:11:09.539Z,52.92
2022-11-14T00:13:55.634Z,54.50
2022-11-14T00:16:41.568Z,58.55
2022-11-14T00:19:27.614Z,51.60
2022-11-14T00:22:13.632Z,60.33
2022-11-14T00:25:00.030Z,61.67
2022-11-14T00:27:45.762Z,54.60
2022-11-14T00:30:31.745Z,46.53
2022-11-14T00:33:20.895Z,48.53
2022-11-14T00:36:07.276Z,44.50
2022-11-14T00:38:54.819Z,42.20
2022-11-14T00:41:41.860Z,42.83
2022-11-14T00:44:28.117Z,41.58
2022-11-14T00:47:14.030Z,43.00
2022-11-14T00:49:59.966Z,47.80
2022-11-14T00:52:46.069Z,41.60
2022-11-14T00:55:31.978Z,49.08
2022-11-14T00:58:18.152Z,54.55
2022-11-14T01:01:04.311Z,81.05
2022-11-14T01:03:51.552Z,70.45
2022-11-14T01:06:37.429Z,77.63
2022-11-14T01:09:23.447Z,71.82
2022-11-14T01:12:09.532Z,78.60
2022-11-14T01:14:55.326Z,79.38
2022-11-14T01:17:41.926Z,84.90
2022-11-14T01:20:27.809Z,82.38
2022-11-14T01:23:16.056Z,92.85
2022-11-14T01:26:07.565Z,77.85
2022-11-14T01:28:53.766Z,84.43
2022-11-14T01:31:39.669Z,80.50
2022-11-14T01:34:26.524Z,82.07
2022-11-14T01:37:12.840Z,75.80
2022-11-14T01:39:58.852Z,88.78
2022-11-14T01:43:18.997Z,115.18
2022-11-14T01:46:16.749Z,86.50
2022-11-14T01:49:17.302Z,94.95
2022-11-14T01:52:15.953Z,87.78
2022-11-14T01:55:05.450Z,114.90
2022-11-14T01:57:51.560Z,118.13
2022-11-14T02:00:37.765Z,91.65
2022-11-14T02:03:24.335Z,107.60
2022-11-14T02:06:14.998Z,95.68
2022-11-14T02:09:04.174Z,77.28
2022-11-14T02:11:51.459Z,77.72
2022-11-14T02:14:38.554Z,86.28
2022-11-14T02:17:30.426Z,73.68
2022-11-14T02:20:24.469Z,67.57
2022-11-14T02:23:11.612Z,67.68
2022-11-14T02:25:57.958Z,72.55
2022-11-14T02:28:43.849Z,57.63
2022-11-14T02:31:29.900Z,53.60
2022-11-14T02:34:19.969Z,46.25
2022-11-14T02:37:06.901Z,46.78
2022-11-14T02:39:52.987Z,45.30
2022-11-14T02:42:39.404Z,42.90
2022-11-14T02:45:25.843Z,41.75
2022-11-14T02:48:11.678Z,38.70
2022-11-14T02:50:58.381Z,36.45
2022-11-14T02:53:44.221Z,37.38
2022-11-14T02:56:30.685Z,32.92
2022-11-14T02:59:16.524Z,33.15
2022-11-14T03:02:02.556Z,33.42
2022-11-14T03:04:48.934Z,33.83
2022-11-14T03:07:34.786Z,34.60
2022-11-14T03:10:21.364Z,34.38
2022-11-14T03:13:07.606Z,36.08
2022-11-14T03:15:53.739Z,34.53
2022-11-14T03:18:40.084Z,34.58
2022-11-14T03:21:26.225Z,33.75
2022-11-14T03:24:12.713Z,30.17
2022-11-14T03:26:58.515Z,27.27
2022-11-14T03:29:44.333Z,25.63
2022-11-14T03:32:30.424Z,23.02
2022-11-14T03:35:16.194Z,24.27
2022-11-14T03:38:01.929Z,23.25
2022-11-14T03:40:47.914Z,23.45
2022-11-14T03:43:35.095Z,23.52
2022-11-14T03:46:21.217Z,21.17
2022-11-14T03:49:07.291Z,21.08
2022-11-14T03:51:53.264Z,20.23
2022-11-14T03:54:39.667Z,20.52
2022-11-14T03:57:25.517Z,21.45
2022-11-14T04:00:11.903Z,21.70
2022-11-14T04:02:58.005Z,20.27
2022-11-14T04:05:45.399Z,22.20
2022-11-14T04:08:32.141Z,21.70
2022-11-14T04:11:19.657Z,22.33
2022-11-14T04:14:05.820Z,22.48
2022-11-14T04:16:51.507Z,23.02
2022-11-14T04:19:37.554Z,23.63
2022-11-14T04:22:23.613Z,24.02
2022-11-14T04:25:09.932Z,20.85
2022-11-14T04:27:55.841Z,19.95
2022-11-14T04:30:42.123Z,20.20
2022-11-14T04:33:28.375Z,20.83
2022-11-14T04:36:14.354Z,23.15
2022-11-14T04:39:00.946Z,23.00
2022-11-14T04:41:47.081Z,22.83
2022-11-14T04:44:33.046Z,22.23
2022-11-14T04:47:18.871Z,22.85
2022-11-14T04:50:05.535Z,22.13
2022-11-14T04:52:53.517Z,20.80
2022-11-14T04:55:39.568Z,21.98
2022-11-14T04:58:25.980Z,22.67
2022-11-14T05:01:13.990Z,26.77
2022-11-14T05:04:00.182Z,22.67
2022-11-14T05:06:46.188Z,25.25
2022-11-14T05:09:32.375Z,26.10
2022-11-14T05:12:18.604Z,27.20
2022-11-14T05:15:04.642Z,25.92
2022-11-14T05:17:50.750Z,28.75
2022-11-14T05:20:36.875Z,28.85
2022-11-14T05:23:23.977Z,28.80
2022-11-14T05:26:15.841Z,28.50
2022-11-14T05:29:01.790Z,28.85
2022-11-14T05:31:48.081Z,29.60
2022-11-14T05:34:34.176Z,32.75
2022-11-14T05:37:20.023Z,30.60
2022-11-14T05:40:06.630Z,30.88
2022-11-14T05:42:55.517Z,30.73
2022-11-14T05:45:41.205Z,30.00
2022-11-14T05:48:28.131Z,29.45
2022-11-14T05:51:14.698Z,28.65
2022-11-14T05:54:00.688Z,27.55
2022-11-14T05:56:46.641Z,28.80
2022-11-14T05:59:32.916Z,29.10
2022-11-14T06:02:19.259Z,29.40
2022-11-14T06:05:05.932Z,30.00
2022-11-14T06:07:56.867Z,28.35
2022-11-14T06:10:42.986Z,25.80
2022-11-14T06:13:28.990Z,23.77
2022-11-14T06:16:19.717Z,23.20
2022-11-14T06:19:05.741Z,24.92
2022-11-14T06:21:51.870Z,23.60
2022-11-14T06:24:38.246Z,23.10
2022-11-14T06:27:24.232Z,22.50
2022-11-14T06:30:10.639Z,23.13
2022-11-14T06:32:58.953Z,24.92
2022-11-14T06:35:44.731Z,25.13
2022-11-14T06:38:36.164Z,25.80
2022-11-14T06:41:23.633Z,26.98
2022-11-14T06:44:09.916Z,25.40
2022-11-14T06:46:56.472Z,23.77
2022-11-14T06:49:42.599Z,24.20
2022-11-14T06:52:29.336Z,23.90
2022-11-14T06:55:16.292Z,27.50
2022-11-14T06:58:03.748Z,26.75
2022-11-14T07:00:49.920Z,24.95
2022-11-14T07:03:36.392Z,28.17
2022-11-14T07:06:24.755Z,25.27
2022-11-14T07:09:11.181Z,26.45
2022-11-14T07:11:57.141Z,26.08
2022-11-14T07:14:43.235Z,27.55
2022-11-14T07:17:31.423Z,26.17
2022-11-14T07:20:20.529Z,29.95
2022-11-14T07:23:06.427Z,25.92
2022-11-14T07:25:52.644Z,27.05
2022-11-14T07:28:41.787Z,35.13
2022-11-14T07:31:27.487Z,34.25
2022-11-14T07:34:13.866Z,33.83
2022-11-14T07:37:00.101Z,35.10
2022-11-14T07:39:51.268Z,38.95
2022-11-14T07:42:37.368Z,41.22
2022-11-14T07:45:23.840Z,36.28
2022-11-14T07:48:12.744Z,35.97
2022-11-14T07:51:03.549Z,34.92
2022-11-14T07:53:53.043Z,31.67
2022-11-14T07:56:39.057Z,32.67
2022-11-14T07:59:25.334Z,37.47
2022-11-14T08:02:15.453Z,34.45
2022-11-14T08:05:01.830Z,34.90
2022-11-14T08:07:58.339Z,35.70
2022-11-14T08:10:44.990Z,41.70
2022-11-14T08:13:33.158Z,40.92
2022-11-14T08:16:19.709Z,38.70
2022-11-14T08:19:06.186Z,45.80
2022-11-14T08:21:52.195Z,40.55
2022-11-14T08:24:38.033Z,39.45
2022-11-14T08:27:24.321Z,43.17
2022-11-14T08:30:10.927Z,41.78
2022-11-14T08:32:57.633Z,44.83
2022-11-14T08:35:43.595Z,37.35
2022-11-14T08:38:30.455Z,29.20
2022-11-14T08:41:16.680Z,29.45
2022-11-14T08:44:02.591Z,29.02
2022-11-14T08:46:49.640Z,28.00
2022-11-14T08:49:35.730Z,28.70
2022-11-14T08:52:21.985Z,31.73
2022-11-14T08:55:08.208Z,32.90
2022-11-14T08:57:54.684Z,30.38
2022-11-14T09:00:41.122Z,27.45
2022-11-14T09:03:27.478Z,26.85
2022-11-14T09:06:13.586Z,27.15
2022-11-14T09:08:59.556Z,26.40
2022-11-14T09:11:45.415Z,27.20
2022-11-14T09:14:34.040Z,24.98
2022-11-14T09:17:19.898Z,25.40
2022-11-14T09:20:06.495Z,26.55
2022-11-14T09:22:53.466Z,24.55
2022-11-14T09:25:39.677Z,23.52
2022-11-14T09:28:25.772Z,23.85
2022-11-14T09:31:13.200Z,22.85
2022-11-14T09:33:58.894Z,23.17
2022-11-14T09:36:44.841Z,21.98
2022-11-14T09:39:30.909Z,20.63
2022-11-14T09:42:35.204Z,22.00
2022-11-14T09:45:21.261Z,21.77
2022-11-14T09:48:12.418Z,21.02
2022-11-14T09:51:13.591Z,21.63
2022-11-14T09:54:24.361Z,19.15
2022-11-14T09:57:19.246Z,20.60
2022-11-14T10:00:22.925Z,20.45
2022-11-14T10:03:29.874Z,21.02
2022-11-14T10:07:00.793Z,20.13
2022-11-14T10:10:05.130Z,20.00
2022-11-14T10:13:21.318Z,19.40
2022-11-14T10:16:18.647Z,17.80
2022-11-14T10:19:20.486Z,18.13
2022-11-14T10:22:40.275Z,18.42
2022-11-14T10:25:43.692Z,16.77
2022-11-14T10:28:46.770Z,17.33
2022-11-14T10:31:53.933Z,15.52
2022-11-14T10:34:54.162Z,16.40
2022-11-14T10:37:49.914Z,15.52
2022-11-14T10:40:46.701Z,16.02
2022-11-14T10:43:41.633Z,15.33
2022-11-14T10:46:34.017Z,14.68
2022-11-14T10:49:22.400Z,14.45
2022-11-14T10:52:20.110Z,14.45
2022-11-14T10:55:15.667Z,14.15
2022-11-14T10:58:01.876Z,14.55
2022-11-14T11:00:47.792Z,14.10
2022-11-14T11:03:44.522Z,13.75
2022-11-14T11:06:30.727Z,14.77
2022-11-14T11:09:45.470Z,13.30
2022-11-14T11:12:41.415Z,13.88
2022-11-14T11:15:31.688Z,13.80
2022-11-14T11:18:31.961Z,14.88
2022-11-14T11:21:23.184Z,14.20
2022-11-14T11:24:09.392Z,13.85
2022-11-14T11:27:27.594Z,14.57
2022-11-14T11:30:13.919Z,14.45
2022-11-14T11:33:17.570Z,14.65
2022-11-14T11:36:15.702Z,15.18
2022-11-14T11:39:02.156Z,15.93
2022-11-14T11:42:08.680Z,15.32
2022-11-14T11:45:02.329Z,15.20
2022-11-14T11:47:55.107Z,15.55
2022-11-14T11:50:41.887Z,15.65
2022-11-14T11:53:36.560Z,16.13
2022-11-14T11:56:26.364Z,16.70
2022-11-14T11:59:58.842Z,18.02
2022-11-14T12:02:50.688Z,18.20
2022-11-14T12:05:58.581Z,16.45
2022-11-14T12:08:58.364Z,16.27
2022-11-14T12:11:51.702Z,15.25
2022-11-14T12:15:21.447Z,15.25
2022-11-14T12:18:30.577Z,15.43
2022-11-14T12:21:22.313Z,15.05
2022-11-14T12:24:16.810Z,16.25
2022-11-14T12:27:30.628Z,17.33
2022-11-14T12:30:24.300Z,17.25
2022-11-14T12:33:18.200Z,18.40
2022-11-14T12:36:09.928Z,17.85
2022-11-14T12:38:57.043Z,18.02
2022-11-14T12:41:43.046Z,19.70
2022-11-14T12:44:29.477Z,19.08
2022-11-14T12:47:22.023Z,18.65
2022-11-14T12:50:28.728Z,19.05
2022-11-14T12:53:38.104Z,18.48
2022-11-14T12:56:24.148Z,17.50
2022-11-14T12:59:39.278Z,19.23
2022-11-14T13:02:58.291Z,17.50
2022-11-14T13:06:10.842Z,19.95
2022-11-14T13:09:18.232Z,19.58
2022-11-14T13:12:40.787Z,19.98
2022-11-14T13:15:51.746Z,21.08
2022-11-14T13:19:31.212Z,21.05
2022-11-14T13:22:37.986Z,19.35
2022-11-14T13:25:25.006Z,19.77
2022-11-14T13:28:41.786Z,19.77
2022-11-14T13:31:36.632Z,20.08
2022-11-14T13:34:49.602Z,21.20
2022-11-14T13:38:06.438Z,21.85
2022-11-14T13:41:47.738Z,23.35
2022-11-14T13:44:51.245Z,23.02
2022-11-14T13:48:11.159Z,21.90
2022-11-14T13:51:28.995Z,22.42
2022-11-14T13:54:17.829Z,22.67
2022-11-14T13:57:18.935Z,23.52
2022-11-14T14:00:20.742Z,23.27
2022-11-14T14:03:26.450Z,22.48
2022-11-14T14:06:34.399Z,23.20
2022-11-14T14:12:33.061Z,24.25
2022-11-14T14:15:32.907Z,25.10
2022-11-14T14:18:22.079Z,26.60
2022-11-14T14:21:17.775Z,26.50
2022-11-14T14:24:34.694Z,27.67
2022-11-14T14:28:03.130Z,28.00
2022-11-14T14:31:11.917Z,27.90
2022-11-14T14:33:57.771Z,27.98
2022-11-14T14:36:50.688Z,31.05
2022-11-14T14:39:37.052Z,29.73
2022-11-14T14:42:23.102Z,30.88
2022-11-14T14:45:19.341Z,29.58
2022-11-14T14:48:16.244Z,28.23
2022-11-14T14:51:05.842Z,27.90
2022-11-14T14:53:53.631Z,27.42
2022-11-14T14:56:39.742Z,29.23
2022-11-14T14:59:27.869Z,32.05
2022-11-14T15:02:18.298Z,35.58
2022-11-14T15:05:05.185Z,33.83
2022-11-14T15:07:54.966Z,34.60
2022-11-14T15:10:41.927Z,37.25
2022-11-14T15:13:30.659Z,36.63
2022-11-14T15:16:16.792Z,35.22
2022-11-14T15:19:05.504Z,33.20
2022-11-14T15:22:04.922Z,33.97
2022-11-14T15:25:13.020Z,34.30
2022-11-14T15:33:42.744Z,38.30
2022-11-14T15:36:28.740Z,39.22
2022-11-14T15:39:32.287Z,36.88
2022-11-14T15:42:21.341Z,38.55
2022-11-14T15:45:27.498Z,38.85
2022-11-14T15:48:17.935Z,38.00
2022-11-14T15:51:04.087Z,37.10
2022-11-14T15:53:51.986Z,37.15
2022-11-14T15:56:38.019Z,41.72
2022-11-14T15:59:25.489Z,40.15
2022-11-14T16:02:24.208Z,40.45
2022-11-14T16:05:13.972Z,39.85
2022-11-14T16:08:00.223Z,41.83
2022-11-14T16:10:46.021Z,40.03
2022-11-14T16:13:32.344Z,39.28
2022-11-14T16:16:18.389Z,39.10
2022-11-14T16:19:05.251Z,39.08
2022-11-14T16:21:51.081Z,38.13
2022-11-14T16:24:37.521Z,38.65
2022-11-14T16:27:23.690Z,38.33
2022-11-14T16:30:12.042Z,35.30
2022-11-14T16:32:58.910Z,33.95
2022-11-14T16:35:48.307Z,33.17
2022-11-14T16:38:34.299Z,34.40
2022-11-14T16:41:20.266Z,33.55
2022-11-14T16:44:06.719Z,33.80
2022-11-14T16:46:52.734Z,35.58
2022-11-14T16:49:41.061Z,32.25
2022-11-14T16:52:26.996Z,33.42
2022-11-14T16:55:13.106Z,34.60
2022-11-14T16:57:58.986Z,35.42
2022-11-14T17:00:45.163Z,36.22
2022-11-14T17:03:32.524Z,37.40
2022-11-14T17:06:19.075Z,36.53
2022-11-14T17:09:04.948Z,40.45
2022-11-14T17:11:50.770Z,40.85
2022-11-14T17:14:38.370Z,43.47
2022-11-14T17:17:27.507Z,44.38
2022-11-14T17:20:13.566Z,43.45
2022-11-14T17:23:02.289Z,45.00
2022-11-14T17:25:48.366Z,47.65
2022-11-14T17:28:34.862Z,47.42
2022-11-14T17:31:20.806Z,47.58
2022-11-14T17:34:09.958Z,49.88
2022-11-14T17:36:56.206Z,49.42
2022-11-14T17:39:42.040Z,47.78
2022-11-14T17:42:28.382Z,43.30
2022-11-14T17:45:14.301Z,48.25
2022-11-14T17:48:00.135Z,45.35
2022-11-14T17:50:46.129Z,42.72
2022-11-14T17:53:36.403Z,47.25
2022-11-14T17:56:26.545Z,50.20
2022-11-14T17:59:12.354Z,47.10
2022-11-14T18:02:00.066Z,51.45
2022-11-14T18:04:47.110Z,49.47
2022-11-14T18:07:33.426Z,49.28
2022-11-14T18:10:19.456Z,51.42
2022-11-14T18:13:05.778Z,54.63
2022-11-14T18:15:51.630Z,52.67
2022-11-14T18:18:38.261Z,51.78
2022-11-14T18:21:25.565Z,53.72
2022-11-14T18:24:14.940Z,52.05
2022-11-14T18:27:00.883Z,54.38
2022-11-14T18:29:46.692Z,53.53
2022-11-14T18:32:33.106Z,52.50
2022-11-14T18:35:19.087Z,49.80
2022-11-14T18:38:05.115Z,46.28
2022-11-14T18:40:56.932Z,47.58
2022-11-14T18:43:44.532Z,44.83
2022-11-14T18:46:36.971Z,44.88
2022-11-14T18:49:23.507Z,40.88
2022-11-14T18:52:12.870Z,42.75
2022-11-14T18:55:04.726Z,42.08
2022-11-14T18:57:50.926Z,37.58
2022-11-14T19:00:37.118Z,33.90
2022-11-14T19:03:23.656Z,35.83
2022-11-14T19:06:11.505Z,35.08
2022-11-14T19:09:08.126Z,33.88
2022-11-14T19:12:15.085Z,33.28
2022-11-14T19:15:02.152Z,32.38
2022-11-14T19:17:48.579Z,33.65
2022-11-14T19:20:34.666Z,34.30
2022-11-14T19:23:20.454Z,34.95
2022-11-14T19:26:06.305Z,33.25
2022-11-14T19:28:52.598Z,34.35
2022-11-14T19:31:38.867Z,31.48
2022-11-14T19:34:25.566Z,32.25
2022-11-14T19:37:11.753Z,33.50
2022-11-14T19:39:57.783Z,35.92
2022-11-14T19:42:44.149Z,34.03
2022-11-14T19:45:34.361Z,34.65
2022-11-14T19:48:20.292Z,36.33
2022-11-14T19:51:10.163Z,33.08
2022-11-14T19:53:58.223Z,34.05
2022-11-14T19:56:44.313Z,30.23
2022-11-14T19:59:30.295Z,34.83
2022-11-14T20:02:16.137Z,26.25
2022-11-14T20:05:01.797Z,20.83
2022-11-14T20:07:47.640Z,21.55
2022-11-14T20:10:47.444Z,15.60
2022-11-14T20:13:37.040Z,15.02
2022-11-14T20:16:29.103Z,14.48
2022-11-14T20:19:16.059Z,13.05
2022-11-14T20:22:02.934Z,12.60
2022-11-14T20:24:48.890Z,12.40
2022-11-14T20:27:34.975Z,12.73
2022-11-14T20:30:20.950Z,12.45
2022-11-14T20:33:08.240Z,10.60
2022-11-14T20:35:54.220Z,11.45
2022-11-14T20:38:40.549Z,9.55
2022-11-14T20:41:26.893Z,8.80
2022-11-14T20:44:13.472Z,9.55
2022-11-14T20:46:59.319Z,9.95
2022-11-14T20:49:48.553Z,10.70
2022-11-14T20:52:35.777Z,11.63
2022-11-14T20:55:21.750Z,11.87
2022-11-14T20:58:07.866Z,10.77
2022-11-14T21:00:54.492Z,9.43
2022-11-14T21:03:41.135Z,8.30
2022-11-14T21:06:27.219Z,8.48
2022-11-14T21:09:13.145Z,7.38
2022-11-14T21:11:59.074Z,6.30
2022-11-14T21:14:45.121Z,6.50
2022-11-14T21:17:33.986Z,6.05
2022-11-14T21:20:19.752Z,4.65
2022-11-14T21:23:05.474Z,3.85
2022-11-14T21:25:51.404Z,4.30
2022-11-14T21:28:39.483Z,3.58
2022-11-14T21:31:28.206Z,2.83
2022-11-14T21:34:17.777Z,2.75
2022-11-14T21:37:03.961Z,2.53
2022-11-14T21:39:50.444Z,2.40
2022-11-14T21:42:36.663Z,1.95
2022-11-14T21:45:22.478Z,2.17
2022-11-14T21:48:08.330Z,1.77
2022-11-14T21:50:54.559Z,1.67
2022-11-14T21:53:41.934Z,1.95
2022-11-14T21:56:29.969Z,2.20
2022-11-14T21:59:18.727Z,2.20
2022-11-14T22:02:23.517Z,1.98
2022-11-14T22:05:09.506Z,1.90
2022-11-14T22:07:55.136Z,1.80
2022-11-14T22:10:41.092Z,1.98
2022-11-14T22:13:29.567Z,1.67
2022-11-14T22:16:19.520Z,1.65
2022-11-14T22:19:06.047Z,1.50
2022-11-14T22:21:52.117Z,1.73
2022-11-14T22:24:37.960Z,1.75
2022-11-14T22:27:24.155Z,1.40
2022-11-14T22:30:10.772Z,1.50
2022-11-14T22:32:59.353Z,1.90
2022-11-14T22:35:45.381Z,1.88
2022-11-14T22:38:33.693Z,1.90
2022-11-14T22:41:26.481Z,1.63
2022-11-14T22:44:16.760Z,1.50
2022-11-14T22:47:02.573Z,1.60
2022-11-14T22:49:48.507Z,1.60
2022-11-14T22:52:34.371Z,1.60
2022-11-14T22:55:20.133Z,1.83
2022-11-14T22:58:05.956Z,1.50
2022-11-14T23:00:53.331Z,1.77
2022-11-14T23:03:40.412Z,1.73
2022-11-14T23:06:27.288Z,1.60
2022-11-14T23:09:13.468Z,1.70
2022-11-14T23:11:59.201Z,1.65
2022-11-14T23:14:45.112Z,1.58
2022-11-14T23:17:31.905Z,1.90
2022-11-14T23:20:18.120Z,1.70
2022-11-14T23:23:04.096Z,1.80
2022-11-14T23:25:49.970Z,1.40
2022-11-14T23:28:36.610Z,1.60
2022-11-14T23:31:23.461Z,1.83
2022-11-14T23:34:09.679Z,2.07
2022-11-14T23:36:55.462Z,1.80
2022-11-14T23:39:41.351Z,1.92
2022-11-14T23:42:27.343Z,2.03
2022-11-14T23:45:13.272Z,2.00
2022-11-14T23:47:59.155Z,2.10
2022-11-14T23:50:45.374Z,2.00
2022-11-14T23:53:31.769Z,2.33
2022-11-14T23:56:18.121Z,2.22
2022-11-14T23:59:04.562Z,2.47
